Flight Information

DEPARTURE
LAS VEGAS, NV
Elevation:
2491
Runways:
17L/35R - 5001x75 - ASPH-E
17R/35L - 6501x100 - ASPH-E
Active PE Departure:
35L - 35R
Current PE ATIS:
Q
Altimeter:
29.89
Remarks:
ATIS:
120.775 702-614-4537
Ground:
127.8
Tower:
125.1
DESTINATION
,
Elevation:
TPA:
1000 (est.)


6606.1 NM75° True-14° Var60° HDG

Flight Plan:
(click to file on line)

1. Type
2. Aircraft Identification
3. Aircraft Type / Special Equipment
4. True Airspeed
kts
5. Departure Airport
(ICAO code)
6. Arriving Airport
(ICAO code)
7. Cruising Altitude
ft
8. Alternate Airport
(ICAO code)
9. Route of Flight
10. Remarks


00:00:00 Departure ATIS: Destination ATIS:

Clearance Limit:
Route:
Altitude: Expect in minutes
Frequency:
Transponder: (7500 Hijack / 7600 Lost Comms / 7700 Emergency)


KHND 190156Z 03008KT 10SM CLR 16/M14 A2989 RMK AO2 SLP137 T01561139
Time: 2021-01-19T01:56:00Z
1611022522
Winds: 30 @ 8 kts
Visibility: 10.0 sm
Clouds (AGL): CLR
Temperature: 15.6 C
Dew Point: -13.9 C
Pressure: 29.890747 in Hgbr


Notes:

Data extracted from FAA Digital Chart Supplement. Effective: 0901Z Thursday, Dec 31, 2020 to 0901Z Thursday, Jan 28, 2021
Current ATIS data is provided courtisy of PilotEdge.